createdAt,value
2017-09-05T00:00:20.720Z,965.09
2017-09-05T00:01:01.293Z,965.09
2017-09-05T00:01:41.871Z,965.1
2017-09-05T00:02:22.453Z,965.1
2017-09-05T00:03:03.015Z,965.12
2017-09-05T00:03:43.597Z,965.12
2017-09-05T00:04:24.171Z,965.1
2017-09-05T00:06:42.926Z,965.12
2017-09-05T00:07:23.504Z,965.1
2017-09-05T00:08:04.080Z,965.1
2017-09-05T00:08:44.653Z,965.13
2017-09-05T00:09:25.225Z,965.07
2017-09-05T00:10:05.802Z,965.09
2017-09-05T00:10:46.377Z,965.1
2017-09-05T00:11:28.591Z,965.1
2017-09-05T00:12:09.176Z,965.12
2017-09-05T00:12:49.838Z,965.11
2017-09-05T00:13:30.383Z,965.13
2017-09-05T00:14:10.961Z,965.07
2017-09-05T00:14:51.554Z,965.14
2017-09-05T00:15:32.146Z,965.13
2017-09-05T00:16:12.707Z,965.14
2017-09-05T00:16:53.276Z,965.16
2017-09-05T00:17:33.851Z,965.19
2017-09-05T00:18:14.424Z,965.2
2017-09-05T00:18:55.001Z,965.18
2017-09-05T00:19:35.582Z,965.2
2017-09-05T00:20:16.151Z,965.21
2017-09-05T00:20:56.730Z,965.2
2017-09-05T00:21:37.297Z,965.19
2017-09-05T00:22:17.897Z,965.23
2017-09-05T00:22:58.461Z,965.2
2017-09-05T00:23:39.043Z,965.19
2017-09-05T00:24:19.616Z,965.2
2017-09-05T00:25:00.199Z,965.23
2017-09-05T00:25:40.776Z,965.22
2017-09-05T00:26:21.365Z,965.24
2017-09-05T00:27:01.931Z,965.29
2017-09-05T00:27:42.512Z,965.24
2017-09-05T00:28:23.079Z,965.28
2017-09-05T00:29:03.670Z,965.23
2017-09-05T00:29:44.228Z,965.24
2017-09-05T00:30:24.810Z,965.22
2017-09-05T00:31:05.383Z,965.24
2017-09-05T00:31:45.964Z,965.22
2017-09-05T00:32:26.536Z,965.27
2017-09-05T00:33:07.110Z,965.31
2017-09-05T00:33:47.694Z,965.27
2017-09-05T00:34:28.268Z,965.25
2017-09-05T00:35:08.844Z,965.3
2017-09-05T00:35:49.431Z,965.3
2017-09-05T00:37:42.055Z,965.31
2017-09-05T00:38:22.637Z,965.29
2017-09-05T00:39:03.207Z,965.33
2017-09-05T00:39:43.795Z,965.29
2017-09-05T00:40:24.376Z,965.29
2017-09-05T00:41:04.950Z,965.29
2017-09-05T00:41:45.518Z,965.27
2017-09-05T00:42:26.090Z,965.29
2017-09-05T00:43:06.669Z,965.3
2017-09-05T00:43:47.258Z,965.26
2017-09-05T00:44:27.832Z,965.29
2017-09-05T00:45:08.412Z,965.31
2017-09-05T00:45:48.990Z,965.34
2017-09-05T00:46:29.568Z,965.34
2017-09-05T00:47:10.140Z,965.34
2017-09-05T00:47:50.701Z,965.33
2017-09-05T00:48:31.294Z,965.33
2017-09-05T00:49:11.859Z,965.37
2017-09-05T00:49:52.430Z,965.36
2017-09-05T00:50:33.014Z,965.35
2017-09-05T00:51:13.596Z,965.33
2017-09-05T00:51:54.172Z,965.34
2017-09-05T00:52:34.749Z,965.37
2017-09-05T00:53:15.324Z,965.32
2017-09-05T00:53:55.904Z,965.29
2017-09-05T00:54:36.490Z,965.31
2017-09-05T00:55:17.066Z,965.31
2017-09-05T00:55:57.652Z,965.32
2017-09-05T00:56:38.233Z,965.32
2017-09-05T00:57:18.823Z,965.32
2017-09-05T00:57:59.387Z,965.36
2017-09-05T00:58:39.965Z,965.32
2017-09-05T00:59:20.539Z,965.34
2017-09-05T01:00:01.112Z,965.31
2017-09-05T01:00:41.679Z,965.32
2017-09-05T01:01:22.260Z,965.27
2017-09-05T01:02:17.760Z,965.29
2017-09-05T01:02:58.326Z,965.25
2017-09-05T01:03:49.434Z,965.29
2017-09-05T01:04:30.080Z,965.26
2017-09-05T01:05:10.664Z,965.23
2017-09-05T01:05:51.305Z,965.24
2017-09-05T02:43:37.554Z,964.91
2017-09-05T02:44:18.127Z,964.97
2017-09-05T02:44:58.694Z,964.91
2017-09-05T02:45:39.272Z,964.91
2017-09-05T02:46:19.852Z,964.9
2017-09-05T02:47:00.451Z,964.9
2017-09-05T02:47:41.041Z,964.92
2017-09-05T02:48:21.615Z,964.9
2017-09-05T02:49:02.193Z,964.94
2017-09-05T02:49:42.786Z,964.97
2017-09-05T02:50:23.355Z,964.96
2017-09-05T02:51:03.927Z,964.95
2017-09-05T02:51:44.503Z,964.93
2017-09-05T02:52:25.083Z,964.91
2017-09-05T02:53:05.661Z,964.9
2017-09-05T02:53:46.231Z,964.94
2017-09-05T02:54:26.810Z,964.93
2017-09-05T02:55:07.398Z,964.89
2017-09-05T02:55:47.961Z,964.92
2017-09-05T02:56:28.537Z,964.92
2017-09-05T02:57:09.108Z,964.87
2017-09-05T02:57:49.688Z,964.91
2017-09-05T02:58:30.273Z,964.88
2017-09-05T02:59:11.821Z,964.9
2017-09-05T02:59:52.398Z,964.88
2017-09-05T03:00:32.975Z,964.9
2017-09-05T03:01:13.556Z,964.9
2017-09-05T03:01:54.232Z,964.93
2017-09-05T03:02:35.552Z,964.88
2017-09-05T03:03:16.140Z,964.9
2017-09-05T03:03:56.725Z,964.94
2017-09-05T03:04:37.307Z,964.96
2017-09-05T03:05:17.862Z,964.98
2017-09-05T03:05:58.457Z,964.98
2017-09-05T03:06:39.031Z,964.98
2017-09-05T03:07:19.633Z,964.96
2017-09-05T03:08:00.462Z,964.99
2017-09-05T03:08:41.364Z,964.95
2017-09-05T03:09:22.285Z,964.95
2017-09-05T03:10:03.171Z,964.92
2017-09-05T03:10:45.999Z,964.91
2017-09-05T03:11:27.931Z,964.93
2017-09-05T03:12:09.389Z,964.91
2017-09-05T03:12:50.558Z,964.92
2017-09-05T03:13:32.489Z,964.92
2017-09-05T03:14:14.362Z,964.93
2017-09-05T03:14:55.160Z,964.88
2017-09-05T03:15:36.008Z,964.88
2017-09-05T03:16:17.018Z,964.84
2017-09-05T03:16:57.896Z,964.84
2017-09-05T03:17:38.939Z,964.84
2017-09-05T03:18:19.862Z,964.85
2017-09-05T03:19:00.439Z,964.86
2017-09-05T03:19:41.085Z,964.87
2017-09-05T03:20:21.778Z,964.87
2017-09-05T03:21:02.429Z,964.89
2017-09-05T03:21:43.014Z,964.86
2017-09-05T03:22:23.689Z,964.88
2017-09-05T03:23:04.484Z,964.87
2017-09-05T03:23:45.200Z,964.89
2017-09-05T03:24:25.783Z,964.85
2017-09-05T03:25:06.460Z,964.87
2017-09-05T03:25:47.238Z,964.83
2017-09-05T03:26:27.869Z,964.82
2017-09-05T03:27:08.459Z,964.85
2017-09-05T03:27:49.105Z,964.82
2017-09-05T03:28:29.693Z,964.82
2017-09-05T03:29:10.301Z,964.81
2017-09-05T03:29:50.928Z,964.8
2017-09-05T03:30:31.716Z,964.81
2017-09-05T03:31:12.455Z,964.85
2017-09-05T03:31:53.636Z,964.81
2017-09-05T03:32:34.311Z,964.82
2017-09-05T03:33:14.883Z,964.82
2017-09-05T03:33:55.581Z,964.81
2017-09-05T03:34:36.270Z,964.83
2017-09-05T03:35:16.951Z,964.8
2017-09-05T03:35:57.700Z,964.77
2017-09-05T03:36:38.277Z,964.78
2017-09-05T03:37:18.852Z,964.75
2017-09-05T03:37:59.433Z,964.73
2017-09-05T03:38:40.189Z,964.73
2017-09-05T03:39:20.867Z,964.76
2017-09-05T03:40:01.444Z,964.72
2017-09-05T03:40:42.078Z,964.71
2017-09-05T03:41:22.813Z,964.71
2017-09-05T03:42:03.490Z,964.71
2017-09-05T03:42:44.138Z,964.74
2017-09-05T03:43:25.031Z,964.71
2017-09-05T03:44:05.873Z,964.68
2017-09-05T03:44:46.536Z,964.72
2017-09-05T03:45:27.120Z,964.71
2017-09-05T03:46:07.729Z,964.69
2017-09-05T03:46:48.300Z,964.69
2017-09-05T03:47:28.885Z,964.7
2017-09-05T03:48:09.468Z,964.71
2017-09-05T03:48:50.038Z,964.72
2017-09-05T03:49:30.596Z,964.72
2017-09-05T03:50:11.186Z,964.74
2017-09-05T03:50:51.771Z,964.72
2017-09-05T04:11:47.435Z,964.8
2017-09-05T04:14:17.033Z,964.75
2017-09-05T04:14:57.592Z,964.76
2017-09-05T04:18:29.079Z,964.73
2017-09-05T04:19:09.602Z,964.75
2017-09-05T04:19:52.918Z,964.77
2017-09-05T04:20:33.559Z,964.76
2017-09-05T04:21:15.788Z,964.74
2017-09-05T04:21:56.357Z,964.77
2017-09-05T04:22:36.920Z,964.74
2017-09-05T04:23:17.502Z,964.76
2017-09-05T04:23:58.079Z,964.76
2017-09-05T04:24:38.660Z,964.81
2017-09-05T04:25:19.256Z,964.81
2017-09-05T04:25:59.817Z,964.82
2017-09-05T04:26:40.394Z,964.82
2017-09-05T04:27:20.971Z,964.85
2017-09-05T04:28:01.554Z,964.83
2017-09-05T04:28:42.109Z,964.83
2017-09-05T04:29:22.692Z,964.82
2017-09-05T04:30:03.270Z,964.82
2017-09-05T04:30:43.857Z,964.79
2017-09-05T04:31:24.430Z,964.81
2017-09-05T04:32:05.009Z,964.82
2017-09-05T04:32:45.589Z,964.9
2017-09-05T04:33:26.166Z,964.84
2017-09-05T04:34:06.749Z,964.86
2017-09-05T04:34:47.329Z,964.86
2017-09-05T04:35:27.912Z,964.87
2017-09-05T04:36:08.492Z,964.88
2017-09-05T04:36:49.070Z,964.9
2017-09-05T04:37:29.673Z,964.93
2017-09-05T04:38:10.230Z,964.91
2017-09-05T04:38:50.820Z,964.91
2017-09-05T04:39:31.407Z,964.93
2017-09-05T04:40:11.980Z,964.91
2017-09-05T04:40:52.558Z,964.91
2017-09-05T04:41:33.136Z,964.89
2017-09-05T04:42:13.709Z,964.9
2017-09-05T04:42:54.291Z,964.9
2017-09-05T04:43:34.865Z,964.89
2017-09-05T04:44:15.437Z,964.91
2017-09-05T04:44:56.031Z,964.9
2017-09-05T04:45:36.615Z,964.89
2017-09-05T04:46:17.200Z,964.9
2017-09-05T04:46:57.773Z,964.91
2017-09-05T04:47:38.348Z,964.93
2017-09-05T04:48:18.933Z,964.88
2017-09-05T04:48:59.520Z,964.94
2017-09-05T04:51:17.474Z,964.95
2017-09-05T04:51:58.061Z,964.91
2017-09-05T04:52:38.644Z,964.95
2017-09-05T04:53:19.219Z,964.92
2017-09-05T04:53:59.779Z,964.95
2017-09-05T04:54:40.343Z,964.98
2017-09-05T04:55:20.922Z,964.96
2017-09-05T04:56:01.496Z,965.01
2017-09-05T04:56:42.079Z,965.01
2017-09-05T04:57:22.647Z,965.01
2017-09-05T04:58:03.214Z,965.03
2017-09-05T04:58:43.792Z,965
2017-09-05T04:59:24.366Z,965.02
2017-09-05T05:00:04.940Z,965.01
2017-09-05T05:00:45.521Z,965.03
2017-09-05T05:01:26.098Z,965.02
2017-09-05T05:02:06.674Z,965.08
2017-09-05T05:02:47.246Z,965.03
2017-09-05T05:03:27.812Z,965.07
2017-09-05T05:04:08.382Z,965.07
2017-09-05T05:04:48.993Z,965.05
2017-09-05T05:05:29.574Z,965.06
2017-09-05T05:06:10.151Z,965.04
2017-09-05T05:06:50.732Z,965.07
2017-09-05T05:08:43.358Z,965.08
2017-09-05T05:09:23.924Z,965.1
2017-09-05T05:10:04.505Z,965.13
2017-09-05T05:10:45.089Z,965.09
2017-09-05T05:11:25.679Z,965.1
2017-09-05T05:12:06.252Z,965.11
2017-09-05T05:12:47.319Z,965.12
2017-09-05T05:13:27.901Z,965.15
2017-09-05T05:14:08.486Z,965.12
2017-09-05T05:14:49.063Z,965.13
2017-09-05T05:15:29.650Z,965.15
2017-09-05T05:16:10.225Z,965.14
2017-09-05T05:16:50.794Z,965.11
2017-09-05T05:17:31.387Z,965.14
2017-09-05T05:18:12.737Z,965.12
2017-09-05T05:18:53.330Z,965.13
2017-09-05T05:19:33.904Z,965.11
2017-09-05T05:20:14.482Z,965.16
2017-09-05T05:20:55.059Z,965.16
2017-09-05T05:21:35.635Z,965.15
2017-09-05T05:22:16.216Z,965.16
2017-09-05T05:22:56.806Z,965.17
2017-09-05T05:23:37.382Z,965.13
2017-09-05T05:24:17.953Z,965.13
2017-09-05T05:24:58.526Z,965.14
2017-09-05T05:25:39.105Z,965.19
2017-09-05T05:26:19.689Z,965.18
2017-09-05T05:27:00.257Z,965.14
2017-09-05T05:27:40.843Z,965.17
2017-09-05T05:28:21.418Z,965.13
2017-09-05T05:29:01.997Z,965.14
2017-09-05T05:29:42.571Z,965.13
2017-09-05T05:30:23.162Z,965.11
2017-09-05T05:31:03.750Z,965.15
2017-09-05T05:31:44.314Z,965.14
2017-09-05T05:32:24.887Z,965.12
2017-09-05T05:33:05.456Z,965.12
2017-09-05T05:33:46.041Z,965.15
2017-09-05T05:34:26.622Z,965.16
2017-09-05T05:35:07.193Z,965.14
2017-09-05T05:35:47.793Z,965.18
2017-09-05T05:36:28.376Z,965.21
2017-09-05T05:37:08.963Z,965.22
2017-09-05T05:37:49.546Z,965.21
2017-09-05T05:38:30.622Z,965.19
2017-09-05T05:39:11.203Z,965.24
2017-09-05T05:39:51.791Z,965.23
2017-09-05T05:40:32.368Z,965.23
2017-09-05T05:41:12.931Z,965.26
2017-09-05T05:41:53.505Z,965.22
2017-09-05T05:42:34.090Z,965.23
2017-09-05T05:43:14.667Z,965.23
2017-09-05T05:43:55.849Z,965.26
2017-09-05T05:44:36.439Z,965.25
2017-09-05T05:45:17.007Z,965.26
2017-09-05T05:45:57.594Z,965.28
2017-09-05T05:46:38.170Z,965.31
2017-09-05T05:47:18.748Z,965.33
2017-09-05T05:47:59.337Z,965.29
2017-09-05T05:48:39.906Z,965.34
2017-09-05T05:49:20.482Z,965.33
2017-09-05T05:50:01.059Z,965.34
2017-09-05T05:50:41.646Z,965.39
2017-09-05T05:51:22.228Z,965.37
2017-09-05T05:52:02.817Z,965.38
2017-09-05T05:52:43.395Z,965.37
2017-09-05T05:53:23.970Z,965.37
2017-09-05T05:54:04.546Z,965.39
2017-09-05T05:54:45.140Z,965.44
2017-09-05T05:55:25.712Z,965.4
2017-09-05T05:56:06.289Z,965.43
2017-09-05T05:56:46.880Z,965.45
2017-09-05T05:57:27.451Z,965.44
2017-09-05T05:58:08.035Z,965.46
2017-09-05T05:58:48.610Z,965.46
2017-09-05T05:59:29.208Z,965.46
2017-09-05T06:00:09.775Z,965.49
2017-09-05T06:00:50.319Z,965.51
2017-09-05T06:01:30.886Z,965.47
2017-09-05T06:02:11.466Z,965.47
2017-09-05T06:02:52.034Z,965.5
2017-09-05T06:03:33.344Z,965.49
2017-09-05T06:04:13.917Z,965.48
2017-09-05T06:04:54.502Z,965.51
2017-09-05T06:05:35.077Z,965.48
2017-09-05T06:06:16.514Z,965.49
2017-09-05T06:06:57.104Z,965.45
2017-09-05T06:07:37.687Z,965.45
2017-09-05T06:08:18.270Z,965.45
2017-09-05T06:08:58.847Z,965.48
2017-09-05T06:09:39.425Z,965.5
2017-09-05T06:10:20.005Z,965.5
2017-09-05T06:11:00.601Z,965.51
2017-09-05T06:11:41.173Z,965.52
2017-09-05T06:12:21.760Z,965.55
2017-09-05T06:13:02.342Z,965.56
2017-09-05T06:13:42.915Z,965.57
2017-09-05T06:14:23.489Z,965.57
2017-09-05T06:15:04.065Z,965.59
2017-09-05T06:15:44.649Z,965.59
2017-09-05T06:16:25.232Z,965.6
2017-09-05T06:17:05.818Z,965.59
2017-09-05T06:17:46.429Z,965.6
2017-09-05T06:18:26.978Z,965.57
2017-09-05T06:19:07.554Z,965.62
2017-09-05T06:19:48.138Z,965.58
2017-09-05T06:20:28.718Z,965.62
2017-09-05T06:21:09.301Z,965.65
2017-09-05T06:21:49.891Z,965.61
2017-09-05T06:22:30.463Z,965.61
2017-09-05T06:23:11.039Z,965.62
2017-09-05T06:23:51.627Z,965.64
2017-09-05T06:24:32.205Z,965.63
2017-09-05T06:25:12.779Z,965.62
2017-09-05T06:25:53.396Z,965.63
2017-09-05T06:26:33.926Z,965.66
2017-09-05T06:27:14.502Z,965.63
2017-09-05T06:27:55.090Z,965.63
2017-09-05T06:28:35.666Z,965.62
2017-09-05T06:29:16.239Z,965.63
2017-09-05T06:29:56.825Z,965.59
2017-09-05T06:30:37.422Z,965.59
2017-09-05T06:31:18.005Z,965.61
2017-09-05T06:31:58.569Z,965.6
2017-09-05T06:32:39.150Z,965.59
2017-09-05T06:33:19.730Z,965.59
2017-09-05T06:34:00.314Z,965.56
2017-09-05T06:34:40.898Z,965.59
2017-09-05T06:35:21.477Z,965.57
2017-09-05T06:36:02.054Z,965.53
2017-09-05T06:36:42.645Z,965.6
2017-09-05T06:37:23.219Z,965.52
2017-09-05T06:38:03.801Z,965.53
2017-09-05T06:38:44.379Z,965.57
2017-09-05T06:39:24.958Z,965.57
2017-09-05T06:40:05.523Z,965.55
2017-09-05T06:40:46.101Z,965.6
2017-09-05T06:41:26.679Z,965.58
2017-09-05T06:42:07.265Z,965.62
2017-09-05T06:42:47.864Z,965.65
2017-09-05T06:43:28.434Z,965.6
2017-09-05T06:44:09.012Z,965.57
2017-09-05T06:44:49.588Z,965.56
2017-09-05T06:45:30.167Z,965.58
2017-09-05T06:46:10.745Z,965.56
2017-09-05T06:46:51.331Z,965.57
2017-09-05T06:47:31.918Z,965.56
2017-09-05T06:48:12.489Z,965.56
2017-09-05T06:48:53.069Z,965.55
2017-09-05T06:49:33.648Z,965.52
2017-09-05T06:50:14.232Z,965.54
2017-09-05T06:50:54.811Z,965.54
2017-09-05T06:51:35.391Z,965.49
2017-09-05T06:52:15.976Z,965.49
2017-09-05T06:52:56.574Z,965.47
2017-09-05T06:53:37.151Z,965.43
2017-09-05T06:54:17.730Z,965.45
2017-09-05T06:54:58.310Z,965.42
2017-09-05T06:55:38.893Z,965.43
2017-09-05T06:56:19.469Z,965.43
2017-09-05T06:57:00.042Z,965.43
2017-09-05T07:27:48.580Z,965.63
2017-09-05T07:28:29.156Z,965.6
2017-09-05T07:29:09.729Z,965.63
2017-09-05T07:29:50.306Z,965.62
2017-09-05T07:30:30.894Z,965.61
2017-09-05T07:31:11.481Z,965.61
2017-09-05T07:31:52.057Z,965.64
2017-09-05T07:32:32.641Z,965.62
2017-09-05T07:33:13.224Z,965.61
2017-09-05T07:33:53.796Z,965.64
2017-09-05T07:34:34.386Z,965.64
2017-09-05T07:35:14.958Z,965.67
2017-09-05T07:35:55.540Z,965.7
2017-09-05T07:36:36.126Z,965.75
2017-09-05T07:37:16.706Z,965.69
2017-09-05T07:37:57.292Z,965.73
2017-09-05T07:38:37.865Z,965.72
2017-09-05T07:39:18.450Z,965.69
2017-09-05T07:39:59.028Z,965.73
2017-09-05T07:40:39.611Z,965.68
2017-09-05T07:41:20.194Z,965.73
2017-09-05T07:42:00.764Z,965.68
2017-09-05T07:42:41.345Z,965.66
2017-09-05T07:43:21.926Z,965.67
2017-09-05T07:45:14.561Z,965.72
2017-09-05T07:45:55.127Z,965.75
2017-09-05T07:46:35.719Z,965.75
2017-09-05T07:47:16.298Z,965.76
2017-09-05T07:47:56.872Z,965.74
2017-09-05T07:48:37.450Z,965.75
2017-09-05T07:49:18.025Z,965.75
2017-09-05T07:49:58.615Z,965.78
2017-09-05T07:50:39.197Z,965.78
2017-09-05T07:51:19.773Z,965.78
2017-09-05T07:52:00.361Z,965.81
2017-09-05T07:52:40.942Z,965.83
2017-09-05T07:53:21.511Z,965.82
2017-09-05T07:54:17.709Z,965.86
2017-09-05T07:54:58.288Z,965.83
2017-09-05T07:55:38.875Z,965.85
2017-09-05T07:56:19.448Z,965.84
2017-09-05T07:57:00.015Z,965.86
2017-09-05T07:57:40.590Z,965.79
2017-09-05T07:58:21.194Z,965.81
2017-09-05T07:59:01.781Z,965.84
2017-09-05T07:59:42.364Z,965.84
2017-09-05T08:00:22.951Z,965.81
2017-09-05T08:01:03.525Z,965.8
2017-09-05T08:01:44.105Z,965.76
2017-09-05T08:02:24.700Z,965.76
2017-09-05T08:03:05.289Z,965.83
2017-09-05T08:03:45.868Z,965.82
2017-09-05T08:04:26.456Z,965.88
2017-09-05T08:05:07.044Z,965.88
2017-09-05T08:05:47.634Z,965.94
2017-09-05T08:06:28.219Z,965.99
2017-09-05T08:07:08.805Z,966.19
2017-09-05T08:07:49.388Z,966.19
2017-09-05T08:08:29.965Z,966.01
2017-09-05T08:09:10.560Z,965.91
2017-09-05T08:09:51.145Z,965.85
2017-09-05T08:10:31.721Z,965.86
2017-09-05T08:11:12.306Z,965.82
2017-09-05T08:11:52.876Z,965.84
2017-09-05T08:12:33.446Z,965.82
2017-09-05T08:13:14.030Z,965.82
2017-09-05T08:13:54.608Z,965.81
2017-09-05T08:14:35.190Z,965.84
2017-09-05T08:15:15.785Z,965.89
2017-09-05T08:15:56.367Z,966.05
2017-09-05T08:16:36.966Z,966.11
2017-09-05T08:17:17.552Z,966.09
2017-09-05T08:17:58.123Z,966.08
2017-09-05T08:18:38.723Z,966.01
2017-09-05T08:19:19.306Z,965.99
2017-09-05T08:19:59.890Z,966.17
2017-09-05T08:20:40.472Z,966.25
2017-09-05T08:21:21.062Z,966.08
2017-09-05T08:22:01.650Z,966.01
2017-09-05T08:22:42.234Z,965.97
2017-09-05T08:23:22.817Z,965.96
2017-09-05T08:24:03.408Z,965.93
2017-09-05T08:24:43.989Z,965.94
2017-09-05T08:25:24.561Z,965.94
2017-09-05T08:26:05.152Z,965.95
2017-09-05T08:26:45.733Z,965.94
2017-09-05T08:27:26.320Z,965.9
2017-09-05T08:28:06.897Z,965.91
2017-09-05T08:28:47.488Z,965.87
2017-09-05T08:29:28.075Z,965.84
2017-09-05T08:30:08.647Z,965.87
2017-09-05T08:30:49.224Z,965.86
2017-09-05T08:31:29.809Z,965.9
2017-09-05T08:32:10.388Z,965.86
2017-09-05T08:32:50.977Z,965.86
2017-09-05T08:33:31.561Z,965.87
2017-09-05T08:34:12.146Z,965.85
2017-09-05T08:34:52.732Z,965.88
2017-09-05T08:35:33.316Z,965.91
2017-09-05T08:36:13.903Z,965.86
2017-09-05T08:36:54.494Z,965.88
2017-09-05T08:37:35.081Z,965.91
2017-09-05T08:38:15.680Z,965.91
2017-09-05T08:38:56.268Z,965.87
2017-09-05T08:39:36.850Z,965.86
2017-09-05T08:40:32.061Z,965.87
2017-09-05T08:41:12.647Z,965.83
2017-09-05T08:41:53.229Z,965.84
2017-09-05T08:42:33.816Z,965.83
2017-09-05T08:43:14.397Z,965.83
2017-09-05T08:43:54.979Z,965.89
2017-09-05T08:44:35.566Z,965.91
2017-09-05T08:45:16.147Z,965.88
2017-09-05T08:45:56.737Z,965.86
2017-09-05T08:46:37.316Z,965.88
2017-09-05T08:47:17.898Z,965.86
2017-09-05T08:47:58.477Z,965.91
2017-09-05T08:48:39.063Z,965.89
2017-09-05T08:49:19.658Z,965.93
2017-09-05T08:50:00.233Z,965.87
2017-09-05T08:50:40.826Z,965.91
2017-09-05T08:51:21.406Z,965.88
2017-09-05T08:52:17.590Z,965.85
2017-09-05T08:52:58.173Z,965.88
2017-09-05T08:53:38.763Z,965.92
2017-09-05T08:54:19.347Z,965.9
2017-09-05T08:54:59.939Z,965.88
2017-09-05T08:55:40.516Z,965.85
2017-09-05T08:56:21.100Z,965.86
2017-09-05T08:57:01.685Z,965.84
2017-09-05T08:57:42.255Z,965.83
2017-09-05T08:58:22.837Z,965.8
2017-09-05T08:59:03.421Z,965.85
2017-09-05T08:59:44.006Z,965.87
2017-09-05T09:00:24.594Z,965.83
2017-09-05T09:01:05.184Z,965.84
2017-09-05T09:01:45.756Z,965.86
2017-09-05T09:02:26.339Z,965.86
2017-09-05T09:03:06.928Z,965.87
2017-09-05T09:03:47.513Z,965.91
2017-09-05T09:04:28.095Z,965.86
2017-09-05T09:05:08.674Z,965.89
2017-09-05T09:05:49.268Z,965.85
2017-09-05T09:06:29.854Z,965.87
2017-09-05T09:07:10.441Z,965.91
2017-09-05T09:07:51.031Z,965.91
2017-09-05T09:08:31.605Z,965.88
2017-09-05T09:09:12.199Z,966.11
2017-09-05T09:09:52.774Z,965.97
2017-09-05T09:10:33.368Z,965.87
2017-09-05T09:11:13.954Z,965.86
2017-09-05T09:11:54.536Z,965.91
2017-09-05T09:12:35.133Z,965.95
2017-09-05T09:13:15.717Z,965.94
2017-09-05T09:13:56.300Z,966.05
2017-09-05T09:14:36.887Z,965.98
2017-09-05T09:15:17.477Z,965.96
2017-09-05T09:15:58.067Z,966.02
2017-09-05T09:16:38.657Z,966.38
2017-09-05T09:17:19.245Z,965.96
2017-09-05T09:17:59.832Z,966.05
2017-09-05T09:18:40.412Z,965.97
2017-09-05T09:19:20.998Z,965.96
2017-09-05T09:20:01.592Z,965.99
2017-09-05T09:20:42.179Z,965.95
2017-09-05T09:21:22.756Z,966.07
2017-09-05T09:22:03.348Z,966.04
2017-09-05T09:22:43.928Z,966.2
2017-09-05T09:23:24.516Z,966.52
2017-09-05T09:24:05.096Z,966.18
2017-09-05T09:24:45.681Z,966.27
2017-09-05T09:25:26.271Z,966.29
2017-09-05T09:26:06.858Z,966.37
2017-09-05T09:26:47.440Z,966.05
2017-09-05T09:27:28.059Z,966.03
2017-09-05T09:28:08.646Z,966.03
2017-09-05T09:28:49.236Z,965.96
2017-09-05T09:29:29.818Z,966.03
2017-09-05T09:30:10.418Z,966.13
2017-09-05T09:30:51.007Z,966.35
2017-09-05T09:31:31.598Z,966.13
2017-09-05T09:32:12.181Z,966.72
2017-09-05T09:32:52.772Z,966.08
2017-09-05T09:33:33.364Z,966.11
2017-09-05T09:34:13.963Z,966.15
2017-09-05T09:34:54.547Z,966.04
2017-09-05T09:35:35.142Z,965.95
2017-09-05T09:36:15.736Z,965.9
2017-09-05T09:36:56.329Z,965.89
2017-09-05T09:37:36.909Z,965.9
2017-09-05T09:38:17.508Z,965.87
2017-09-05T09:38:58.099Z,965.9
2017-09-05T09:39:38.689Z,965.91
2017-09-05T09:40:19.278Z,965.9
2017-09-05T09:40:59.869Z,965.87
2017-09-05T09:41:40.461Z,965.87
2017-09-05T09:42:21.046Z,965.98
2017-09-05T09:43:01.644Z,966.33
2017-09-05T09:43:42.235Z,966.07
2017-09-05T09:44:22.822Z,966.71
2017-09-05T09:45:03.418Z,966.03
2017-09-05T09:45:43.999Z,966.11
2017-09-05T09:46:24.597Z,966.8
2017-09-05T09:47:05.186Z,966.37
2017-09-05T09:47:45.778Z,966.42
2017-09-05T09:48:26.367Z,966.37
2017-09-05T09:49:06.961Z,965.95
2017-09-05T09:49:47.543Z,965.96
2017-09-05T09:50:28.134Z,965.95
2017-09-05T09:51:08.720Z,966.03
2017-09-05T09:51:49.307Z,965.94
2017-09-05T09:52:29.892Z,965.85
2017-09-05T09:53:10.497Z,965.79
2017-09-05T09:53:51.094Z,965.78
2017-09-05T09:54:31.681Z,965.78
2017-09-05T09:55:12.263Z,965.86
2017-09-05T09:55:52.859Z,965.96
2017-09-05T09:56:33.459Z,965.87
2017-09-05T09:57:14.031Z,965.8
2017-09-05T09:57:54.626Z,965.83
2017-09-05T09:58:35.212Z,965.79
2017-09-05T09:59:15.926Z,965.87
2017-09-05T09:59:56.588Z,965.84
2017-09-05T10:00:37.231Z,965.81
2017-09-05T10:01:17.907Z,965.81
2017-09-05T10:01:58.633Z,965.75
2017-09-05T10:02:39.303Z,965.75
2017-09-05T10:03:20.123Z,965.74
2017-09-05T10:04:00.752Z,965.75
2017-09-05T10:04:41.367Z,965.93
2017-09-05T10:05:22.078Z,965.88
2017-09-05T10:06:02.750Z,965.81
2017-09-05T10:06:43.424Z,965.79
2017-09-05T10:07:24.049Z,965.75
2017-09-05T10:08:04.674Z,965.78
2017-09-05T10:08:45.431Z,965.76
2017-09-05T10:09:26.060Z,965.77
2017-09-05T10:10:06.726Z,965.76
2017-09-05T10:10:47.385Z,965.75
2017-09-05T10:11:28.002Z,965.72
2017-09-05T10:12:08.705Z,965.75
2017-09-05T10:12:49.364Z,965.73
2017-09-05T10:13:30.027Z,965.8
2017-09-05T10:14:10.781Z,965.84
2017-09-05T10:14:51.553Z,965.75
2017-09-05T10:15:32.294Z,965.72
2017-09-05T10:16:12.999Z,965.7
2017-09-05T10:16:53.748Z,965.72
2017-09-05T10:17:34.492Z,965.71
2017-09-05T10:18:15.114Z,965.73
2017-09-05T10:18:55.709Z,965.75
2017-09-05T10:19:36.302Z,965.79
2017-09-05T10:20:16.890Z,965.77
2017-09-05T10:20:57.473Z,965.71
2017-09-05T10:21:38.061Z,965.68
2017-09-05T10:22:18.646Z,965.68
2017-09-05T10:22:59.236Z,965.74
2017-09-05T10:23:39.817Z,965.75
2017-09-05T10:24:20.405Z,965.72
2017-09-05T10:25:00.991Z,965.82
2017-09-05T10:25:41.575Z,965.84
2017-09-05T10:26:22.163Z,966.16
2017-09-05T10:27:02.748Z,965.89
2017-09-05T10:27:43.351Z,965.75
2017-09-05T10:28:23.929Z,965.95
2017-09-05T10:29:04.528Z,965.82
2017-09-05T10:29:45.093Z,965.74
2017-09-05T10:30:25.686Z,965.65
2017-09-05T10:31:06.271Z,965.61
2017-09-05T10:31:46.860Z,965.59
2017-09-05T10:32:27.449Z,965.62
2017-09-05T10:33:08.040Z,965.59
2017-09-05T10:33:48.642Z,965.59
2017-09-05T10:34:29.240Z,965.61
2017-09-05T10:35:09.834Z,965.8
2017-09-05T10:35:50.419Z,965.73
2017-09-05T10:36:31.009Z,965.66
2017-09-05T10:37:11.591Z,965.64
2017-09-05T10:37:52.187Z,965.9
2017-09-05T10:38:32.776Z,965.67
2017-09-05T10:39:13.371Z,965.73
2017-09-05T10:39:53.959Z,965.8
2017-09-05T10:40:34.554Z,965.7
2017-09-05T10:41:15.143Z,965.87
2017-09-05T10:41:55.735Z,965.64
2017-09-05T10:42:36.326Z,965.78
2017-09-05T10:43:16.923Z,965.52
2017-09-05T10:43:57.514Z,965.9
2017-09-05T10:44:38.112Z,966.04
2017-09-05T10:45:18.712Z,965.59
2017-09-05T10:45:59.313Z,965.58
2017-09-05T10:46:39.912Z,965.63
2017-09-05T10:47:20.498Z,965.93
2017-09-05T10:48:01.083Z,965.76
2017-09-05T10:48:41.667Z,965.46
2017-09-05T10:49:22.254Z,965.47
2017-09-05T10:50:02.848Z,965.45
2017-09-05T10:50:43.442Z,965.46
2017-09-05T10:51:24.041Z,965.44
2017-09-05T10:52:04.638Z,965.35
2017-09-05T10:52:45.235Z,965.4
2017-09-05T10:53:25.827Z,965.35
2017-09-05T10:54:06.419Z,965.31
2017-09-05T10:54:47.007Z,965.35
2017-09-05T10:55:27.605Z,965.41
2017-09-05T10:56:08.203Z,965.37
2017-09-05T10:56:48.797Z,965.41
2017-09-05T10:57:29.395Z,965.4
2017-09-05T10:58:09.998Z,965.39
2017-09-05T10:58:50.577Z,965.38
2017-09-05T10:59:31.156Z,965.39
2017-09-05T11:00:11.755Z,965.38
2017-09-05T11:00:52.334Z,965.39
2017-09-05T11:01:32.937Z,965.42
2017-09-05T11:02:13.520Z,965.38
2017-09-05T11:02:54.112Z,965.37
2017-09-05T11:03:34.697Z,965.33
2017-09-05T11:04:15.287Z,965.3
2017-09-05T11:04:55.871Z,965.25
2017-09-05T11:05:36.464Z,965.23
2017-09-05T11:06:17.061Z,965.27
2017-09-05T11:06:57.645Z,965.25
2017-09-05T11:07:38.229Z,965.28
2017-09-05T11:08:18.819Z,965.26